Weather at Edmonton International Airport

Public forecast

Using degrees Celsius for public forecast. Weather courtesy of forecast.io.

Current aviation weather report (METAR) for Edmonton International Airport

Retrieved 2022/05/24 01:00 UTC (1 hour ago):

CYEG 240100Z 29006KT 230V310 20SM FEW100 BKN140 BKN250 20/M04 A2983 RMK CU1AC4CI2 VIRGA PTCHS SLP109 DENSITY ALT 3600FT

Aviation forecast (TAF) for Edmonton International Airport

Retrieved 2022-05-24 00:42 UTC (1 hour ago):

TAF CYEG 232340Z 2400/2424 VRB03KT P6SM SCT100 TEMPO 2400/2409 VRB12G22KT P6SM VCSH BKN100 FM240900 30012KT P6SM SCT100 FM241600 33010KT P6SM SCT040 BKN100 TEMPO 2416/2424 P6SM -SHRA BKN050 PROB30 2421/2424 VRB15G25KT 5SM TSRA OVC050CB RMK NXT FCST BY 240300Z